sensor_id;sensor_type;location;lat;lon;timestamp;P1;durP1;ratioP1;P2;durP2;ratioP2
50267;SDS011;36153;50.960;6.220;2022-08-19T00:01:33;1.30;;;0.93;;
50267;SDS011;36153;50.960;6.220;2022-08-19T00:04:36;0.50;;;0.32;;
50267;SDS011;36153;50.960;6.220;2022-08-19T00:07:36;0.52;;;0.30;;
50267;SDS011;36153;50.960;6.220;2022-08-19T00:10:37;0.10;;;0.10;;
50267;SDS011;36153;50.960;6.220;2022-08-19T00:13:37;0.28;;;0.20;;
50267;SDS011;36153;50.960;6.220;2022-08-19T00:16:39;1.90;;;0.38;;
50267;SDS011;36153;50.960;6.220;2022-08-19T00:19:41;0.43;;;0.28;;
50267;SDS011;36153;50.960;6.220;2022-08-19T00:22:41;0.82;;;0.80;;
50267;SDS011;36153;50.960;6.220;2022-08-19T00:25:41;0.90;;;0.43;;
50267;SDS011;36153;50.960;6.220;2022-08-19T00:28:42;0.50;;;0.50;;
50267;SDS011;36153;50.960;6.220;2022-08-19T00:31:42;0.50;;;0.43;;
50267;SDS011;36153;50.960;6.220;2022-08-19T00:34:44;0.70;;;0.40;;
50267;SDS011;36153;50.960;6.220;2022-08-19T00:37:44;1.13;;;0.70;;
50267;SDS011;36153;50.960;6.220;2022-08-19T00:40:44;0.68;;;0.68;;
50267;SDS011;36153;50.960;6.220;2022-08-19T00:44:00;1.10;;;0.65;;
50267;SDS011;36153;50.960;6.220;2022-08-19T00:47:04;0.22;;;0.15;;
50267;SDS011;36153;50.960;6.220;2022-08-19T00:50:05;0.68;;;0.40;;
50267;SDS011;36153;50.960;6.220;2022-08-19T00:53:09;0.85;;;0.40;;
50267;SDS011;36153;50.960;6.220;2022-08-19T00:56:11;0.47;;;0.40;;
50267;SDS011;36153;50.960;6.220;2022-08-19T00:59:11;0.85;;;0.60;;
50267;SDS011;36153;50.960;6.220;2022-08-19T01:02:12;2.92;;;0.47;;
50267;SDS011;36153;50.960;6.220;2022-08-19T01:05:15;0.73;;;0.55;;
50267;SDS011;36153;50.960;6.220;2022-08-19T01:08:20;0.93;;;0.80;;
50267;SDS011;36153;50.960;6.220;2022-08-19T01:11:21;0.73;;;0.60;;
50267;SDS011;36153;50.960;6.220;2022-08-19T01:14:22;0.75;;;0.52;;
50267;SDS011;36153;50.960;6.220;2022-08-19T01:17:23;0.88;;;0.45;;
50267;SDS011;36153;50.960;6.220;2022-08-19T01:20:23;0.80;;;0.73;;
50267;SDS011;36153;50.960;6.220;2022-08-19T01:23:24;0.43;;;0.38;;
50267;SDS011;36153;50.960;6.220;2022-08-19T01:26:43;0.82;;;0.70;;
50267;SDS011;36153;50.960;6.220;2022-08-19T01:29:45;0.98;;;0.63;;
50267;SDS011;36153;50.960;6.220;2022-08-19T01:32:45;0.52;;;0.52;;
50267;SDS011;36153;50.960;6.220;2022-08-19T01:35:46;0.28;;;0.28;;
50267;SDS011;36153;50.960;6.220;2022-08-19T01:38:50;1.85;;;0.95;;
50267;SDS011;36153;50.960;6.220;2022-08-19T01:41:50;0.88;;;0.57;;
50267;SDS011;36153;50.960;6.220;2022-08-19T01:44:54;0.20;;;0.20;;
50267;SDS011;36153;50.960;6.220;2022-08-19T01:47:54;0.55;;;0.55;;
50267;SDS011;36153;50.960;6.220;2022-08-19T01:50:56;0.30;;;0.20;;
50267;SDS011;36153;50.960;6.220;2022-08-19T01:53:56;0.30;;;0.30;;
50267;SDS011;36153;50.960;6.220;2022-08-19T01:56:59;0.93;;;0.93;;
50267;SDS011;36153;50.960;6.220;2022-08-19T02:00:05;0.98;;;0.30;;
50267;SDS011;36153;50.960;6.220;2022-08-19T02:03:09;0.20;;;0.20;;
50267;SDS011;36153;50.960;6.220;2022-08-19T02:06:11;0.68;;;0.63;;
50267;SDS011;36153;50.960;6.220;2022-08-19T02:09:12;0.85;;;0.65;;
50267;SDS011;36153;50.960;6.220;2022-08-19T02:12:12;0.38;;;0.38;;
50267;SDS011;36153;50.960;6.220;2022-08-19T02:15:12;0.43;;;0.43;;
50267;SDS011;36153;50.960;6.220;2022-08-19T02:18:13;0.40;;;0.30;;
50267;SDS011;36153;50.960;6.220;2022-08-19T02:21:14;0.50;;;0.50;;
50267;SDS011;36153;50.960;6.220;2022-08-19T02:24:16;1.65;;;0.55;;
50267;SDS011;36153;50.960;6.220;2022-08-19T02:27:17;1.48;;;1.38;;
50267;SDS011;36153;50.960;6.220;2022-08-19T02:30:17;1.23;;;0.77;;
50267;SDS011;36153;50.960;6.220;2022-08-19T02:33:18;2.10;;;1.13;;
50267;SDS011;36153;50.960;6.220;2022-08-19T02:36:19;20.40;;;1.33;;
50267;SDS011;36153;50.960;6.220;2022-08-19T02:39:19;1.48;;;1.15;;
50267;SDS011;36153;50.960;6.220;2022-08-19T02:42:19;0.90;;;0.68;;
50267;SDS011;36153;50.960;6.220;2022-08-19T02:45:20;0.88;;;0.75;;
50267;SDS011;36153;50.960;6.220;2022-08-19T02:48:21;0.90;;;0.90;;
50267;SDS011;36153;50.960;6.220;2022-08-19T02:51:28;0.80;;;0.63;;
50267;SDS011;36153;50.960;6.220;2022-08-19T02:54:33;2.33;;;1.50;;
50267;SDS011;36153;50.960;6.220;2022-08-19T02:57:34;1.25;;;1.00;;
50267;SDS011;36153;50.960;6.220;2022-08-19T03:00:35;0.77;;;0.75;;
50267;SDS011;36153;50.960;6.220;2022-08-19T03:03:36;0.38;;;0.38;;
50267;SDS011;36153;50.960;6.220;2022-08-19T03:06:38;0.40;;;0.35;;
50267;SDS011;36153;50.960;6.220;2022-08-19T03:09:43;0.55;;;0.55;;
50267;SDS011;36153;50.960;6.220;2022-08-19T03:12:44;4.20;;;1.35;;
50267;SDS011;36153;50.960;6.220;2022-08-19T03:15:46;0.77;;;0.77;;
50267;SDS011;36153;50.960;6.220;2022-08-19T03:18:47;1.45;;;0.98;;
50267;SDS011;36153;50.960;6.220;2022-08-19T03:21:49;1.20;;;0.90;;
50267;SDS011;36153;50.960;6.220;2022-08-19T03:24:50;0.63;;;0.63;;
50267;SDS011;36153;50.960;6.220;2022-08-19T03:27:51;1.95;;;1.17;;
50267;SDS011;36153;50.960;6.220;2022-08-19T03:30:55;0.73;;;0.40;;
50267;SDS011;36153;50.960;6.220;2022-08-19T03:33:58;1.55;;;0.77;;
50267;SDS011;36153;50.960;6.220;2022-08-19T03:36:59;1.17;;;0.93;;
50267;SDS011;36153;50.960;6.220;2022-08-19T03:40:03;1.80;;;0.95;;
50267;SDS011;36153;50.960;6.220;2022-08-19T03:43:04;1.63;;;0.60;;
50267;SDS011;36153;50.960;6.220;2022-08-19T03:46:09;1.05;;;0.70;;
50267;SDS011;36153;50.960;6.220;2022-08-19T03:49:12;2.15;;;0.82;;
50267;SDS011;36153;50.960;6.220;2022-08-19T03:52:12;0.90;;;0.77;;
50267;SDS011;36153;50.960;6.220;2022-08-19T03:55:14;0.55;;;0.55;;
50267;SDS011;36153;50.960;6.220;2022-08-19T03:58:14;3.60;;;1.10;;
50267;SDS011;36153;50.960;6.220;2022-08-19T04:01:15;1.48;;;0.57;;
50267;SDS011;36153;50.960;6.220;2022-08-19T04:04:18;1.38;;;1.27;;
50267;SDS011;36153;50.960;6.220;2022-08-19T04:07:18;1.75;;;1.05;;
50267;SDS011;36153;50.960;6.220;2022-08-19T04:10:21;1.77;;;1.60;;
50267;SDS011;36153;50.960;6.220;2022-08-19T04:13:22;1.33;;;0.85;;
50267;SDS011;36153;50.960;6.220;2022-08-19T04:16:23;1.55;;;1.35;;
50267;SDS011;36153;50.960;6.220;2022-08-19T04:19:29;1.63;;;1.30;;
50267;SDS011;36153;50.960;6.220;2022-08-19T04:22:29;1.23;;;1.00;;
50267;SDS011;36153;50.960;6.220;2022-08-19T04:25:34;1.92;;;1.05;;
50267;SDS011;36153;50.960;6.220;2022-08-19T04:28:39;4.28;;;1.92;;
50267;SDS011;36153;50.960;6.220;2022-08-19T04:31:40;3.95;;;1.25;;
50267;SDS011;36153;50.960;6.220;2022-08-19T04:34:41;1.65;;;1.05;;
50267;SDS011;36153;50.960;6.220;2022-08-19T04:37:42;1.73;;;1.17;;
50267;SDS011;36153;50.960;6.220;2022-08-19T04:40:44;3.83;;;1.40;;
50267;SDS011;36153;50.960;6.220;2022-08-19T04:44:04;1.70;;;1.08;;
50267;SDS011;36153;50.960;6.220;2022-08-19T04:47:05;1.05;;;0.55;;
50267;SDS011;36153;50.960;6.220;2022-08-19T04:50:06;1.60;;;1.08;;
50267;SDS011;36153;50.960;6.220;2022-08-19T04:53:08;1.95;;;1.33;;
50267;SDS011;36153;50.960;6.220;2022-08-19T04:56:13;2.50;;;2.25;;
50267;SDS011;36153;50.960;6.220;2022-08-19T04:59:15;2.70;;;1.73;;
50267;SDS011;36153;50.960;6.220;2022-08-19T05:02:18;3.78;;;2.10;;
50267;SDS011;36153;50.960;6.220;2022-08-19T05:05:18;3.10;;;2.00;;
50267;SDS011;36153;50.960;6.220;2022-08-19T05:08:20;1.13;;;1.02;;
50267;SDS011;36153;50.960;6.220;2022-08-19T05:11:23;1.15;;;1.05;;
50267;SDS011;36153;50.960;6.220;2022-08-19T05:14:26;2.15;;;1.10;;
50267;SDS011;36153;50.960;6.220;2022-08-19T05:17:26;2.83;;;1.88;;
50267;SDS011;36153;50.960;6.220;2022-08-19T05:20:27;3.40;;;1.75;;
50267;SDS011;36153;50.960;6.220;2022-08-19T05:23:46;2.92;;;1.25;;
50267;SDS011;36153;50.960;6.220;2022-08-19T05:26:47;1.60;;;1.50;;
50267;SDS011;36153;50.960;6.220;2022-08-19T05:29:48;1.98;;;0.70;;
50267;SDS011;36153;50.960;6.220;2022-08-19T05:32:49;1.95;;;1.00;;
50267;SDS011;36153;50.960;6.220;2022-08-19T05:35:49;0.63;;;0.55;;
50267;SDS011;36153;50.960;6.220;2022-08-19T05:38:50;0.85;;;0.75;;
50267;SDS011;36153;50.960;6.220;2022-08-19T05:41:54;2.22;;;2.03;;
50267;SDS011;36153;50.960;6.220;2022-08-19T05:44:57;3.03;;;1.58;;
50267;SDS011;36153;50.960;6.220;2022-08-19T05:47:57;2.45;;;1.58;;
50267;SDS011;36153;50.960;6.220;2022-08-19T05:51:03;7.97;;;2.55;;
50267;SDS011;36153;50.960;6.220;2022-08-19T05:54:06;2.60;;;1.95;;
50267;SDS011;36153;50.960;6.220;2022-08-19T05:57:09;1.83;;;0.93;;
50267;SDS011;36153;50.960;6.220;2022-08-19T06:00:09;4.93;;;1.77;;
50267;SDS011;36153;50.960;6.220;2022-08-19T06:03:11;2.40;;;1.67;;
50267;SDS011;36153;50.960;6.220;2022-08-19T06:06:12;5.38;;;2.55;;
50267;SDS011;36153;50.960;6.220;2022-08-19T06:09:13;3.13;;;1.20;;
50267;SDS011;36153;50.960;6.220;2022-08-19T06:12:13;2.25;;;1.40;;
50267;SDS011;36153;50.960;6.220;2022-08-19T06:15:14;0.90;;;0.82;;
50267;SDS011;36153;50.960;6.220;2022-08-19T06:18:15;3.40;;;1.88;;
50267;SDS011;36153;50.960;6.220;2022-08-19T06:21:17;0.52;;;0.45;;
50267;SDS011;36153;50.960;6.220;2022-08-19T06:24:26;2.65;;;2.03;;
50267;SDS011;36153;50.960;6.220;2022-08-19T06:27:28;2.03;;;1.48;;
50267;SDS011;36153;50.960;6.220;2022-08-19T06:30:30;5.25;;;2.40;;
50267;SDS011;36153;50.960;6.220;2022-08-19T06:33:31;3.65;;;1.48;;
50267;SDS011;36153;50.960;6.220;2022-08-19T06:36:33;2.42;;;1.38;;
50267;SDS011;36153;50.960;6.220;2022-08-19T06:39:37;2.22;;;1.15;;
50267;SDS011;36153;50.960;6.220;2022-08-19T06:42:39;1.48;;;1.00;;
50267;SDS011;36153;50.960;6.220;2022-08-19T06:45:39;4.20;;;1.60;;
50267;SDS011;36153;50.960;6.220;2022-08-19T06:48:40;1.30;;;1.20;;
50267;SDS011;36153;50.960;6.220;2022-08-19T06:51:42;2.65;;;1.85;;
50267;SDS011;36153;50.960;6.220;2022-08-19T06:54:44;2.83;;;1.88;;
50267;SDS011;36153;50.960;6.220;2022-08-19T06:57:44;2.30;;;2.08;;
50267;SDS011;36153;50.960;6.220;2022-08-19T07:00:46;10.02;;;2.45;;
50267;SDS011;36153;50.960;6.220;2022-08-19T07:03:46;2.15;;;0.70;;
50267;SDS011;36153;50.960;6.220;2022-08-19T07:06:47;7.22;;;2.28;;
50267;SDS011;36153;50.960;6.220;2022-08-19T07:09:48;3.38;;;2.17;;
50267;SDS011;36153;50.960;6.220;2022-08-19T07:12:49;2.10;;;1.13;;
50267;SDS011;36153;50.960;6.220;2022-08-19T07:15:50;4.60;;;2.45;;
50267;SDS011;36153;50.960;6.220;2022-08-19T07:18:51;2.47;;;1.00;;
50267;SDS011;36153;50.960;6.220;2022-08-19T07:21:51;1.88;;;1.38;;
50267;SDS011;36153;50.960;6.220;2022-08-19T07:24:55;2.85;;;1.88;;
50267;SDS011;36153;50.960;6.220;2022-08-19T07:27:55;5.55;;;1.73;;
50267;SDS011;36153;50.960;6.220;2022-08-19T07:30:56;1.58;;;0.82;;
50267;SDS011;36153;50.960;6.220;2022-08-19T07:33:56;1.80;;;1.30;;
50267;SDS011;36153;50.960;6.220;2022-08-19T07:36:56;4.05;;;1.50;;
50267;SDS011;36153;50.960;6.220;2022-08-19T07:39:57;3.40;;;1.30;;
50267;SDS011;36153;50.960;6.220;2022-08-19T07:42:57;6.57;;;2.03;;
50267;SDS011;36153;50.960;6.220;2022-08-19T07:45:58;2.92;;;1.27;;
50267;SDS011;36153;50.960;6.220;2022-08-19T07:48:58;1.33;;;1.23;;
50267;SDS011;36153;50.960;6.220;2022-08-19T07:52:01;1.85;;;1.63;;
50267;SDS011;36153;50.960;6.220;2022-08-19T07:55:10;1.90;;;1.45;;
50267;SDS011;36153;50.960;6.220;2022-08-19T07:58:12;1.48;;;1.05;;
50267;SDS011;36153;50.960;6.220;2022-08-19T08:01:17;1.67;;;1.25;;
50267;SDS011;36153;50.960;6.220;2022-08-19T08:04:20;1.95;;;1.42;;
50267;SDS011;36153;50.960;6.220;2022-08-19T08:07:53;2.45;;;1.95;;
50267;SDS011;36153;50.960;6.220;2022-08-19T08:11:12;2.25;;;1.55;;
50267;SDS011;36153;50.960;6.220;2022-08-19T08:14:16;3.13;;;1.95;;
50267;SDS011;36153;50.960;6.220;2022-08-19T08:17:20;1.30;;;1.05;;
50267;SDS011;36153;50.960;6.220;2022-08-19T08:20:22;1.55;;;1.45;;
50267;SDS011;36153;50.960;6.220;2022-08-19T08:23:22;2.05;;;1.42;;
50267;SDS011;36153;50.960;6.220;2022-08-19T08:26:24;2.00;;;1.38;;
50267;SDS011;36153;50.960;6.220;2022-08-19T08:29:26;3.22;;;1.77;;
50267;SDS011;36153;50.960;6.220;2022-08-19T08:32:27;5.55;;;2.35;;
50267;SDS011;36153;50.960;6.220;2022-08-19T08:35:27;1.98;;;1.30;;
50267;SDS011;36153;50.960;6.220;2022-08-19T08:38:28;5.30;;;2.20;;
50267;SDS011;36153;50.960;6.220;2022-08-19T08:48:00;2.00;;;0.60;;
50267;SDS011;36153;50.960;6.220;2022-08-19T08:51:08;2.35;;;1.98;;
50267;SDS011;36153;50.960;6.220;2022-08-19T08:54:12;1.33;;;0.57;;
50267;SDS011;36153;50.960;6.220;2022-08-19T08:57:23;1.23;;;0.57;;
50267;SDS011;36153;50.960;6.220;2022-08-19T09:00:32;1.42;;;0.98;;
50267;SDS011;36153;50.960;6.220;2022-08-19T09:03:36;1.15;;;0.90;;
50267;SDS011;36153;50.960;6.220;2022-08-19T09:10:10;0.90;;;0.70;;
50267;SDS011;36153;50.960;6.220;2022-08-19T09:16:49;1.95;;;1.02;;
50267;SDS011;36153;50.960;6.220;2022-08-19T09:19:53;1.38;;;1.08;;
50267;SDS011;36153;50.960;6.220;2022-08-19T09:23:19;0.93;;;0.80;;
50267;SDS011;36153;50.960;6.220;2022-08-19T09:26:22;0.52;;;0.30;;
50267;SDS011;36153;50.960;6.220;2022-08-19T09:29:23;0.75;;;0.30;;
50267;SDS011;36153;50.960;6.220;2022-08-19T09:32:24;0.60;;;0.60;;
50267;SDS011;36153;50.960;6.220;2022-08-19T09:35:27;1.05;;;0.52;;
50267;SDS011;36153;50.960;6.220;2022-08-19T09:38:28;0.38;;;0.35;;
50267;SDS011;36153;50.960;6.220;2022-08-19T09:41:29;0.75;;;0.55;;
50267;SDS011;36153;50.960;6.220;2022-08-19T09:44:29;1.27;;;0.40;;
50267;SDS011;36153;50.960;6.220;2022-08-19T09:47:30;0.90;;;0.70;;
50267;SDS011;36153;50.960;6.220;2022-08-19T09:50:32;7.05;;;0.60;;
50267;SDS011;36153;50.960;6.220;2022-08-19T09:53:34;0.30;;;0.30;;
50267;SDS011;36153;50.960;6.220;2022-08-19T09:56:35;0.52;;;0.45;;
50267;SDS011;36153;50.960;6.220;2022-08-19T09:59:35;0.55;;;0.50;;
50267;SDS011;36153;50.960;6.220;2022-08-19T10:02:36;1.15;;;0.98;;
50267;SDS011;36153;50.960;6.220;2022-08-19T10:05:36;0.93;;;0.68;;
50267;SDS011;36153;50.960;6.220;2022-08-19T10:08:49;1.00;;;0.82;;
50267;SDS011;36153;50.960;6.220;2022-08-19T10:11:51;2.70;;;1.15;;
50267;SDS011;36153;50.960;6.220;2022-08-19T10:14:51;1.27;;;1.08;;
50267;SDS011;36153;50.960;6.220;2022-08-19T10:17:54;1.30;;;0.65;;
50267;SDS011;36153;50.960;6.220;2022-08-19T10:21:02;0.50;;;0.50;;
50267;SDS011;36153;50.960;6.220;2022-08-19T10:24:13;0.40;;;0.25;;
50267;SDS011;36153;50.960;6.220;2022-08-19T10:27:14;0.65;;;0.63;;
50267;SDS011;36153;50.960;6.220;2022-08-19T10:30:15;1.48;;;1.38;;
50267;SDS011;36153;50.960;6.220;2022-08-19T10:33:15;1.55;;;0.47;;
50267;SDS011;36153;50.960;6.220;2022-08-19T10:36:20;1.38;;;1.10;;
50267;SDS011;36153;50.960;6.220;2022-08-19T10:39:22;0.70;;;0.57;;
50267;SDS011;36153;50.960;6.220;2022-08-19T10:42:23;1.65;;;1.05;;
50267;SDS011;36153;50.960;6.220;2022-08-19T10:45:23;2.10;;;0.50;;
50267;SDS011;36153;50.960;6.220;2022-08-19T10:48:25;1.88;;;0.47;;
50267;SDS011;36153;50.960;6.220;2022-08-19T10:51:26;1.42;;;0.70;;
50267;SDS011;36153;50.960;6.220;2022-08-19T10:54:45;2.40;;;0.60;;
50267;SDS011;36153;50.960;6.220;2022-08-19T10:58:03;4.60;;;1.77;;
50267;SDS011;36153;50.960;6.220;2022-08-19T11:01:04;0.73;;;0.52;;
50267;SDS011;36153;50.960;6.220;2022-08-19T11:04:04;0.93;;;0.63;;
50267;SDS011;36153;50.960;6.220;2022-08-19T11:07:08;1.25;;;0.55;;
50267;SDS011;36153;50.960;6.220;2022-08-19T11:10:11;1.08;;;0.75;;
50267;SDS011;36153;50.960;6.220;2022-08-19T11:13:13;0.65;;;0.30;;
50267;SDS011;36153;50.960;6.220;2022-08-19T11:16:18;2.17;;;1.05;;
50267;SDS011;36153;50.960;6.220;2022-08-19T11:19:20;3.10;;;0.68;;
50267;SDS011;36153;50.960;6.220;2022-08-19T11:22:20;1.52;;;0.88;;
50267;SDS011;36153;50.960;6.220;2022-08-19T11:25:20;1.52;;;0.35;;
50267;SDS011;36153;50.960;6.220;2022-08-19T11:28:21;0.52;;;0.38;;
50267;SDS011;36153;50.960;6.220;2022-08-19T11:31:26;2.38;;;0.47;;
50267;SDS011;36153;50.960;6.220;2022-08-19T11:34:28;0.50;;;0.50;;
50267;SDS011;36153;50.960;6.220;2022-08-19T11:37:29;1.05;;;0.60;;
50267;SDS011;36153;50.960;6.220;2022-08-19T11:40:29;0.90;;;0.85;;
50267;SDS011;36153;50.960;6.220;2022-08-19T11:43:30;1.92;;;0.32;;
50267;SDS011;36153;50.960;6.220;2022-08-19T11:46:31;0.75;;;0.50;;
50267;SDS011;36153;50.960;6.220;2022-08-19T11:49:31;0.57;;;0.55;;
50267;SDS011;36153;50.960;6.220;2022-08-19T11:52:32;0.70;;;0.30;;
50267;SDS011;36153;50.960;6.220;2022-08-19T11:55:32;0.60;;;0.30;;
50267;SDS011;36153;50.960;6.220;2022-08-19T11:58:36;0.40;;;0.40;;
50267;SDS011;36153;50.960;6.220;2022-08-19T12:01:37;0.57;;;0.55;;
50267;SDS011;36153;50.960;6.220;2022-08-19T12:04:40;0.93;;;0.63;;
50267;SDS011;36153;50.960;6.220;2022-08-19T12:07:41;0.77;;;0.52;;
50267;SDS011;36153;50.960;6.220;2022-08-19T12:10:42;0.55;;;0.55;;
50267;SDS011;36153;50.960;6.220;2022-08-19T12:13:44;0.63;;;0.63;;
50267;SDS011;36153;50.960;6.220;2022-08-19T12:16:45;0.50;;;0.50;;
50267;SDS011;36153;50.960;6.220;2022-08-19T12:19:46;0.55;;;0.52;;
50267;SDS011;36153;50.960;6.220;2022-08-19T12:22:46;0.90;;;0.77;;
50267;SDS011;36153;50.960;6.220;2022-08-19T12:25:48;0.52;;;0.52;;
50267;SDS011;36153;50.960;6.220;2022-08-19T12:28:52;1.05;;;0.77;;
50267;SDS011;36153;50.960;6.220;2022-08-19T12:31:52;0.95;;;0.13;;
50267;SDS011;36153;50.960;6.220;2022-08-19T12:34:53;0.55;;;0.55;;
50267;SDS011;36153;50.960;6.220;2022-08-19T12:37:54;0.65;;;0.32;;
50267;SDS011;36153;50.960;6.220;2022-08-19T12:40:55;0.68;;;0.32;;
50267;SDS011;36153;50.960;6.220;2022-08-19T12:43:56;0.55;;;0.35;;
50267;SDS011;36153;50.960;6.220;2022-08-19T12:46:56;0.43;;;0.22;;
50267;SDS011;36153;50.960;6.220;2022-08-19T12:49:57;0.82;;;0.65;;
50267;SDS011;36153;50.960;6.220;2022-08-19T12:52:57;0.32;;;0.15;;
50267;SDS011;36153;50.960;6.220;2022-08-19T12:55:58;0.40;;;0.40;;
50267;SDS011;36153;50.960;6.220;2022-08-19T12:59:03;0.20;;;0.20;;
50267;SDS011;36153;50.960;6.220;2022-08-19T13:02:05;0.10;;;0.10;;
50267;SDS011;36153;50.960;6.220;2022-08-19T13:05:07;0.40;;;0.10;;
50267;SDS011;36153;50.960;6.220;2022-08-19T13:08:11;0.10;;;0.10;;
50267;SDS011;36153;50.960;6.220;2022-08-19T13:11:12;0.22;;;0.15;;
50267;SDS011;36153;50.960;6.220;2022-08-19T13:14:14;0.73;;;0.63;;
50267;SDS011;36153;50.960;6.220;2022-08-19T13:17:15;0.20;;;0.20;;
50267;SDS011;36153;50.960;6.220;2022-08-19T13:20:17;0.57;;;0.20;;
50267;SDS011;36153;50.960;6.220;2022-08-19T13:23:18;0.10;;;0.00;;
50267;SDS011;36153;50.960;6.220;2022-08-19T13:26:19;0.50;;;0.40;;
50267;SDS011;36153;50.960;6.220;2022-08-19T13:29:19;0.52;;;0.43;;
50267;SDS011;36153;50.960;6.220;2022-08-19T13:32:38;0.10;;;0.10;;
50267;SDS011;36153;50.960;6.220;2022-08-19T13:35:58;0.55;;;0.00;;
50267;SDS011;36153;50.960;6.220;2022-08-19T13:39:00;1.27;;;0.20;;
50267;SDS011;36153;50.960;6.220;2022-08-19T13:42:01;0.32;;;0.32;;
50267;SDS011;36153;50.960;6.220;2022-08-19T13:45:04;0.45;;;0.43;;
50267;SDS011;36153;50.960;6.220;2022-08-19T13:48:06;0.43;;;0.32;;
50267;SDS011;36153;50.960;6.220;2022-08-19T13:51:08;0.50;;;0.47;;
50267;SDS011;36153;50.960;6.220;2022-08-19T13:54:10;0.82;;;0.30;;
50267;SDS011;36153;50.960;6.220;2022-08-19T13:57:12;0.73;;;0.65;;
50267;SDS011;36153;50.960;6.220;2022-08-19T14:00:15;0.08;;;0.05;;
50267;SDS011;36153;50.960;6.220;2022-08-19T14:03:19;0.20;;;0.07;;
50267;SDS011;36153;50.960;6.220;2022-08-19T14:06:20;0.03;;;0.00;;
50267;SDS011;36153;50.960;6.220;2022-08-19T14:09:22;0.20;;;0.15;;
50267;SDS011;36153;50.960;6.220;2022-08-19T14:12:22;0.00;;;0.00;;
50267;SDS011;36153;50.960;6.220;2022-08-19T14:15:23;0.10;;;0.03;;
50267;SDS011;36153;50.960;6.220;2022-08-19T14:22:24;0.00;;;0.00;;
50267;SDS011;36153;50.960;6.220;2022-08-19T14:25:26;0.00;;;0.00;;
50267;SDS011;36153;50.960;6.220;2022-08-19T14:28:28;0.00;;;0.00;;
50267;SDS011;36153;50.960;6.220;2022-08-19T14:31:30;0.00;;;0.00;;
50267;SDS011;36153;50.960;6.220;2022-08-19T14:34:30;0.00;;;0.00;;
50267;SDS011;36153;50.960;6.220;2022-08-19T14:37:32;0.20;;;0.20;;
50267;SDS011;36153;50.960;6.220;2022-08-19T14:40:33;0.00;;;0.00;;
50267;SDS011;36153;50.960;6.220;2022-08-19T14:43:34;0.00;;;0.00;;
50267;SDS011;36153;50.960;6.220;2022-08-19T14:46:34;0.35;;;0.10;;
50267;SDS011;36153;50.960;6.220;2022-08-19T14:49:35;0.00;;;0.00;;
50267;SDS011;36153;50.960;6.220;2022-08-19T14:52:35;0.00;;;0.00;;
50267;SDS011;36153;50.960;6.220;2022-08-19T14:55:36;0.00;;;0.00;;
50267;SDS011;36153;50.960;6.220;2022-08-19T14:58:42;0.75;;;0.38;;
50267;SDS011;36153;50.960;6.220;2022-08-19T15:01:43;0.20;;;0.20;;
50267;SDS011;36153;50.960;6.220;2022-08-19T15:04:43;0.00;;;0.00;;
50267;SDS011;36153;50.960;6.220;2022-08-19T15:07:44;0.00;;;0.00;;
50267;SDS011;36153;50.960;6.220;2022-08-19T15:10:47;0.15;;;0.15;;
50267;SDS011;36153;50.960;6.220;2022-08-19T15:13:51;0.03;;;0.03;;
50267;SDS011;36153;50.960;6.220;2022-08-19T15:16:53;0.00;;;0.00;;
50267;SDS011;36153;50.960;6.220;2022-08-19T15:19:53;0.75;;;0.10;;
50267;SDS011;36153;50.960;6.220;2022-08-19T15:22:54;0.10;;;0.10;;
50267;SDS011;36153;50.960;6.220;2022-08-19T15:25:54;0.00;;;0.00;;
50267;SDS011;36153;50.960;6.220;2022-08-19T15:28:55;0.20;;;0.20;;
50267;SDS011;36153;50.960;6.220;2022-08-19T15:31:55;1.45;;;0.22;;
50267;SDS011;36153;50.960;6.220;2022-08-19T15:34:57;2.65;;;0.10;;
50267;SDS011;36153;50.960;6.220;2022-08-19T15:37:57;0.10;;;0.10;;
50267;SDS011;36153;50.960;6.220;2022-08-19T15:40:57;0.20;;;0.10;;
50267;SDS011;36153;50.960;6.220;2022-08-19T15:44:18;0.57;;;0.30;;
50267;SDS011;36153;50.960;6.220;2022-08-19T15:47:21;0.40;;;0.13;;
50267;SDS011;36153;50.960;6.220;2022-08-19T15:50:21;0.00;;;0.00;;
50267;SDS011;36153;50.960;6.220;2022-08-19T15:53:22;0.20;;;0.10;;
50267;SDS011;36153;50.960;6.220;2022-08-19T15:56:22;0.00;;;0.00;;
50267;SDS011;36153;50.960;6.220;2022-08-19T15:59:23;3.95;;;0.05;;
50267;SDS011;36153;50.960;6.220;2022-08-19T16:02:41;0.22;;;0.20;;
50267;SDS011;36153;50.960;6.220;2022-08-19T16:06:14;0.45;;;0.00;;
50267;SDS011;36153;50.960;6.220;2022-08-19T16:09:27;0.00;;;0.00;;
50267;SDS011;36153;50.960;6.220;2022-08-19T16:12:30;0.00;;;0.00;;
50267;SDS011;36153;50.960;6.220;2022-08-19T16:15:32;0.10;;;0.10;;
50267;SDS011;36153;50.960;6.220;2022-08-19T16:18:33;0.00;;;0.00;;
50267;SDS011;36153;50.960;6.220;2022-08-19T16:21:37;0.00;;;0.00;;
50267;SDS011;36153;50.960;6.220;2022-08-19T16:24:38;0.25;;;0.10;;
50267;SDS011;36153;50.960;6.220;2022-08-19T16:27:39;0.00;;;0.00;;
50267;SDS011;36153;50.960;6.220;2022-08-19T16:30:40;0.00;;;0.00;;
50267;SDS011;36153;50.960;6.220;2022-08-19T16:33:41;0.00;;;0.00;;
50267;SDS011;36153;50.960;6.220;2022-08-19T16:36:42;0.10;;;0.10;;
50267;SDS011;36153;50.960;6.220;2022-08-19T16:39:42;0.00;;;0.00;;
50267;SDS011;36153;50.960;6.220;2022-08-19T16:42:43;0.32;;;0.20;;
50267;SDS011;36153;50.960;6.220;2022-08-19T16:45:44;0.00;;;0.00;;
50267;SDS011;36153;50.960;6.220;2022-08-19T16:48:44;0.00;;;0.00;;
50267;SDS011;36153;50.960;6.220;2022-08-19T16:51:45;0.00;;;0.00;;
50267;SDS011;36153;50.960;6.220;2022-08-19T16:54:46;0.00;;;0.00;;
50267;SDS011;36153;50.960;6.220;2022-08-19T16:57:47;0.10;;;0.10;;
50267;SDS011;36153;50.960;6.220;2022-08-19T17:00:47;0.00;;;0.00;;
50267;SDS011;36153;50.960;6.220;2022-08-19T17:03:49;0.03;;;0.03;;
50267;SDS011;36153;50.960;6.220;2022-08-19T17:06:51;0.00;;;0.00;;
50267;SDS011;36153;50.960;6.220;2022-08-19T17:09:51;0.50;;;0.10;;
50267;SDS011;36153;50.960;6.220;2022-08-19T17:12:51;0.00;;;0.00;;
50267;SDS011;36153;50.960;6.220;2022-08-19T17:15:53;0.00;;;0.00;;
50267;SDS011;36153;50.960;6.220;2022-08-19T17:18:55;0.00;;;0.00;;
50267;SDS011;36153;50.960;6.220;2022-08-19T17:21:57;0.00;;;0.00;;
50267;SDS011;36153;50.960;6.220;2022-08-19T17:24:58;0.00;;;0.00;;
50267;SDS011;36153;50.960;6.220;2022-08-19T17:28:08;0.00;;;0.00;;
50267;SDS011;36153;50.960;6.220;2022-08-19T17:31:17;0.05;;;0.05;;
50267;SDS011;36153;50.960;6.220;2022-08-19T17:34:19;0.10;;;0.10;;
50267;SDS011;36153;50.960;6.220;2022-08-19T17:37:19;0.05;;;0.05;;
50267;SDS011;36153;50.960;6.220;2022-08-19T17:40:20;0.00;;;0.00;;
50267;SDS011;36153;50.960;6.220;2022-08-19T17:43:20;0.00;;;0.00;;
50267;SDS011;36153;50.960;6.220;2022-08-19T17:46:21;0.00;;;0.00;;
50267;SDS011;36153;50.960;6.220;2022-08-19T17:49:21;0.10;;;0.10;;
50267;SDS011;36153;50.960;6.220;2022-08-19T17:52:21;0.20;;;0.20;;
50267;SDS011;36153;50.960;6.220;2022-08-19T17:55:22;0.10;;;0.10;;
50267;SDS011;36153;50.960;6.220;2022-08-19T17:58:23;0.00;;;0.00;;
50267;SDS011;36153;50.960;6.220;2022-08-19T18:01:24;0.10;;;0.10;;
50267;SDS011;36153;50.960;6.220;2022-08-19T18:04:25;0.50;;;0.13;;
50267;SDS011;36153;50.960;6.220;2022-08-19T18:07:25;0.10;;;0.10;;
50267;SDS011;36153;50.960;6.220;2022-08-19T18:10:26;0.65;;;0.08;;
50267;SDS011;36153;50.960;6.220;2022-08-19T18:13:28;0.17;;;0.15;;
50267;SDS011;36153;50.960;6.220;2022-08-19T18:16:29;0.00;;;0.00;;
50267;SDS011;36153;50.960;6.220;2022-08-19T18:19:31;0.40;;;0.17;;
50267;SDS011;36153;50.960;6.220;2022-08-19T18:22:33;0.00;;;0.00;;
50267;SDS011;36153;50.960;6.220;2022-08-19T18:25:35;0.00;;;0.00;;
50267;SDS011;36153;50.960;6.220;2022-08-19T18:28:36;0.10;;;0.10;;
50267;SDS011;36153;50.960;6.220;2022-08-19T18:31:38;0.13;;;0.10;;
50267;SDS011;36153;50.960;6.220;2022-08-19T18:34:40;1.45;;;0.10;;
50267;SDS011;36153;50.960;6.220;2022-08-19T18:37:41;0.00;;;0.00;;